sensor_id;sensor_type;location;lat;lon;timestamp;P1;durP1;ratioP1;P2;durP2;ratioP2
16254;SDS011;8235;52.198;9.904;2023-03-14T00:00:30;1.60;;;1.00;;
16254;SDS011;8235;52.198;9.904;2023-03-14T00:02:57;1.93;;;0.80;;
16254;SDS011;8235;52.198;9.904;2023-03-14T00:05:24;3.53;;;1.10;;
16254;SDS011;8235;52.198;9.904;2023-03-14T00:07:51;2.33;;;1.00;;
16254;SDS011;8235;52.198;9.904;2023-03-14T00:10:17;2.53;;;0.87;;
16254;SDS011;8235;52.198;9.904;2023-03-14T00:12:44;1.93;;;1.30;;
16254;SDS011;8235;52.198;9.904;2023-03-14T00:15:11;1.57;;;0.93;;
16254;SDS011;8235;52.198;9.904;2023-03-14T00:17:38;1.93;;;0.90;;
16254;SDS011;8235;52.198;9.904;2023-03-14T00:20:07;2.37;;;1.30;;
16254;SDS011;8235;52.198;9.904;2023-03-14T00:22:36;2.13;;;1.07;;
16254;SDS011;8235;52.198;9.904;2023-03-14T00:25:03;2.10;;;0.90;;
16254;SDS011;8235;52.198;9.904;2023-03-14T00:27:31;2.33;;;0.97;;
16254;SDS011;8235;52.198;9.904;2023-03-14T00:29:58;3.77;;;1.20;;
16254;SDS011;8235;52.198;9.904;2023-03-14T00:32:25;1.90;;;1.10;;
16254;SDS011;8235;52.198;9.904;2023-03-14T00:34:51;1.93;;;1.10;;
16254;SDS011;8235;52.198;9.904;2023-03-14T00:37:19;1.77;;;1.10;;
16254;SDS011;8235;52.198;9.904;2023-03-14T00:39:46;2.27;;;1.00;;
16254;SDS011;8235;52.198;9.904;2023-03-14T00:42:12;3.33;;;0.90;;
16254;SDS011;8235;52.198;9.904;2023-03-14T00:44:39;2.90;;;0.70;;
16254;SDS011;8235;52.198;9.904;2023-03-14T00:47:05;2.47;;;1.00;;
16254;SDS011;8235;52.198;9.904;2023-03-14T00:49:32;3.80;;;0.90;;
16254;SDS011;8235;52.198;9.904;2023-03-14T00:51:58;2.37;;;1.10;;
16254;SDS011;8235;52.198;9.904;2023-03-14T00:54:26;1.23;;;0.83;;
16254;SDS011;8235;52.198;9.904;2023-03-14T00:56:52;2.30;;;1.43;;
16254;SDS011;8235;52.198;9.904;2023-03-14T00:59:19;4.70;;;1.10;;
16254;SDS011;8235;52.198;9.904;2023-03-14T01:01:45;2.20;;;0.80;;
16254;SDS011;8235;52.198;9.904;2023-03-14T01:04:12;2.77;;;1.10;;
16254;SDS011;8235;52.198;9.904;2023-03-14T01:06:39;2.63;;;0.80;;
16254;SDS011;8235;52.198;9.904;2023-03-14T01:09:06;3.17;;;1.20;;
16254;SDS011;8235;52.198;9.904;2023-03-14T01:11:34;3.23;;;0.93;;
16254;SDS011;8235;52.198;9.904;2023-03-14T01:14:01;2.60;;;0.80;;
16254;SDS011;8235;52.198;9.904;2023-03-14T01:16:29;1.27;;;0.80;;
16254;SDS011;8235;52.198;9.904;2023-03-14T01:18:57;2.37;;;0.80;;
16254;SDS011;8235;52.198;9.904;2023-03-14T01:21:24;2.40;;;1.00;;
16254;SDS011;8235;52.198;9.904;2023-03-14T01:23:54;4.07;;;1.10;;
16254;SDS011;8235;52.198;9.904;2023-03-14T01:26:22;2.77;;;0.73;;
16254;SDS011;8235;52.198;9.904;2023-03-14T01:28:54;2.97;;;0.93;;
16254;SDS011;8235;52.198;9.904;2023-03-14T01:31:21;3.00;;;1.00;;
16254;SDS011;8235;52.198;9.904;2023-03-14T01:33:49;2.43;;;1.00;;
16254;SDS011;8235;52.198;9.904;2023-03-14T01:36:16;1.40;;;0.90;;
16254;SDS011;8235;52.198;9.904;2023-03-14T01:38:43;2.83;;;1.20;;
16254;SDS011;8235;52.198;9.904;2023-03-14T01:41:11;2.17;;;1.07;;
16254;SDS011;8235;52.198;9.904;2023-03-14T01:43:40;2.47;;;0.90;;
16254;SDS011;8235;52.198;9.904;2023-03-14T01:46:16;1.47;;;0.90;;
16254;SDS011;8235;52.198;9.904;2023-03-14T01:48:47;1.73;;;0.87;;
16254;SDS011;8235;52.198;9.904;2023-03-14T01:51:19;1.23;;;0.70;;
16254;SDS011;8235;52.198;9.904;2023-03-14T01:53:47;2.37;;;1.00;;
16254;SDS011;8235;52.198;9.904;2023-03-14T01:56:16;2.30;;;0.93;;
16254;SDS011;8235;52.198;9.904;2023-03-14T01:58:45;2.30;;;1.20;;
16254;SDS011;8235;52.198;9.904;2023-03-14T02:01:16;1.63;;;0.70;;
16254;SDS011;8235;52.198;9.904;2023-03-14T02:03:47;1.67;;;0.80;;
16254;SDS011;8235;52.198;9.904;2023-03-14T02:06:17;1.93;;;0.80;;
16254;SDS011;8235;52.198;9.904;2023-03-14T02:08:47;2.23;;;0.80;;
16254;SDS011;8235;52.198;9.904;2023-03-14T02:11:14;1.57;;;0.80;;
16254;SDS011;8235;52.198;9.904;2023-03-14T02:13:41;3.27;;;0.90;;
16254;SDS011;8235;52.198;9.904;2023-03-14T02:16:08;5.43;;;1.40;;
16254;SDS011;8235;52.198;9.904;2023-03-14T02:18:36;2.27;;;0.80;;
16254;SDS011;8235;52.198;9.904;2023-03-14T02:21:04;3.83;;;1.43;;
16254;SDS011;8235;52.198;9.904;2023-03-14T02:23:38;4.13;;;1.07;;
16254;SDS011;8235;52.198;9.904;2023-03-14T02:26:14;2.23;;;0.80;;
16254;SDS011;8235;52.198;9.904;2023-03-14T02:28:46;2.23;;;0.60;;
16254;SDS011;8235;52.198;9.904;2023-03-14T02:31:13;1.97;;;0.77;;
16254;SDS011;8235;52.198;9.904;2023-03-14T02:33:40;2.60;;;0.80;;
16254;SDS011;8235;52.198;9.904;2023-03-14T02:36:09;2.90;;;0.80;;
16254;SDS011;8235;52.198;9.904;2023-03-14T02:38:40;2.03;;;0.93;;
16254;SDS011;8235;52.198;9.904;2023-03-14T02:41:12;1.60;;;0.83;;
16254;SDS011;8235;52.198;9.904;2023-03-14T02:43:39;2.37;;;0.80;;
16254;SDS011;8235;52.198;9.904;2023-03-14T02:46:07;2.17;;;0.90;;
16254;SDS011;8235;52.198;9.904;2023-03-14T02:48:37;2.50;;;1.00;;
16254;SDS011;8235;52.198;9.904;2023-03-14T02:51:07;1.73;;;0.80;;
16254;SDS011;8235;52.198;9.904;2023-03-14T02:53:35;2.17;;;0.83;;
16254;SDS011;8235;52.198;9.904;2023-03-14T02:56:03;1.90;;;0.97;;
16254;SDS011;8235;52.198;9.904;2023-03-14T02:58:31;2.47;;;0.63;;
16254;SDS011;8235;52.198;9.904;2023-03-14T03:00:57;2.93;;;0.90;;
16254;SDS011;8235;52.198;9.904;2023-03-14T03:03:25;3.57;;;0.90;;
16254;SDS011;8235;52.198;9.904;2023-03-14T03:05:52;3.13;;;1.00;;
16254;SDS011;8235;52.198;9.904;2023-03-14T03:08:21;0.80;;;0.60;;
16254;SDS011;8235;52.198;9.904;2023-03-14T03:10:49;2.77;;;1.30;;
16254;SDS011;8235;52.198;9.904;2023-03-14T03:13:16;4.90;;;0.80;;
16254;SDS011;8235;52.198;9.904;2023-03-14T03:15:43;2.80;;;0.70;;
16254;SDS011;8235;52.198;9.904;2023-03-14T03:18:10;1.77;;;0.60;;
16254;SDS011;8235;52.198;9.904;2023-03-14T03:20:38;2.47;;;0.77;;
16254;SDS011;8235;52.198;9.904;2023-03-14T03:23:04;3.27;;;0.93;;
16254;SDS011;8235;52.198;9.904;2023-03-14T03:25:31;2.53;;;0.70;;
16254;SDS011;8235;52.198;9.904;2023-03-14T03:27:58;2.30;;;0.80;;
16254;SDS011;8235;52.198;9.904;2023-03-14T03:30:26;2.17;;;0.80;;
16254;SDS011;8235;52.198;9.904;2023-03-14T03:32:52;2.47;;;0.70;;
16254;SDS011;8235;52.198;9.904;2023-03-14T03:35:19;2.50;;;0.80;;
16254;SDS011;8235;52.198;9.904;2023-03-14T03:37:47;1.97;;;0.70;;
16254;SDS011;8235;52.198;9.904;2023-03-14T03:40:13;1.70;;;0.57;;
16254;SDS011;8235;52.198;9.904;2023-03-14T03:42:40;1.67;;;0.70;;
16254;SDS011;8235;52.198;9.904;2023-03-14T03:45:07;1.10;;;0.60;;
16254;SDS011;8235;52.198;9.904;2023-03-14T03:47:34;1.50;;;0.70;;
16254;SDS011;8235;52.198;9.904;2023-03-14T03:50:00;4.00;;;0.80;;
16254;SDS011;8235;52.198;9.904;2023-03-14T03:52:27;1.63;;;0.67;;
16254;SDS011;8235;52.198;9.904;2023-03-14T03:54:55;2.37;;;0.80;;
16254;SDS011;8235;52.198;9.904;2023-03-14T03:57:21;3.53;;;0.70;;
16254;SDS011;8235;52.198;9.904;2023-03-14T03:59:48;2.53;;;0.80;;
16254;SDS011;8235;52.198;9.904;2023-03-14T04:02:15;3.03;;;0.70;;
16254;SDS011;8235;52.198;9.904;2023-03-14T04:04:41;1.53;;;0.77;;
16254;SDS011;8235;52.198;9.904;2023-03-14T04:07:07;4.40;;;0.70;;
16254;SDS011;8235;52.198;9.904;2023-03-14T04:09:35;1.93;;;0.60;;
16254;SDS011;8235;52.198;9.904;2023-03-14T04:12:04;0.87;;;0.30;;
16254;SDS011;8235;52.198;9.904;2023-03-14T04:14:31;2.20;;;0.33;;
16254;SDS011;8235;52.198;9.904;2023-03-14T04:16:58;1.70;;;0.80;;
16254;SDS011;8235;52.198;9.904;2023-03-14T04:19:24;0.60;;;0.20;;
16254;SDS011;8235;52.198;9.904;2023-03-14T04:21:50;1.03;;;0.20;;
16254;SDS011;8235;52.198;9.904;2023-03-14T04:24:17;1.53;;;0.30;;
16254;SDS011;8235;52.198;9.904;2023-03-14T04:26:43;0.17;;;0.17;;
16254;SDS011;8235;52.198;9.904;2023-03-14T04:29:11;0.60;;;0.20;;
16254;SDS011;8235;52.198;9.904;2023-03-14T04:31:38;0.60;;;0.20;;
16254;SDS011;8235;52.198;9.904;2023-03-14T04:34:04;0.77;;;0.10;;
16254;SDS011;8235;52.198;9.904;2023-03-14T04:36:30;0.90;;;0.20;;
16254;SDS011;8235;52.198;9.904;2023-03-14T04:38:57;0.20;;;0.20;;
16254;SDS011;8235;52.198;9.904;2023-03-14T04:41:23;0.20;;;0.10;;
16254;SDS011;8235;52.198;9.904;2023-03-14T04:43:50;0.90;;;0.30;;
16254;SDS011;8235;52.198;9.904;2023-03-14T04:46:18;0.60;;;0.20;;
16254;SDS011;8235;52.198;9.904;2023-03-14T04:48:44;0.80;;;0.30;;
16254;SDS011;8235;52.198;9.904;2023-03-14T04:51:11;1.30;;;0.43;;
16254;SDS011;8235;52.198;9.904;2023-03-14T04:53:37;1.90;;;0.30;;
16254;SDS011;8235;52.198;9.904;2023-03-14T04:56:04;0.77;;;0.40;;
16254;SDS011;8235;52.198;9.904;2023-03-14T04:58:31;1.47;;;0.50;;
16254;SDS011;8235;52.198;9.904;2023-03-14T05:01:01;1.30;;;0.40;;
16254;SDS011;8235;52.198;9.904;2023-03-14T05:03:29;1.63;;;0.40;;
16254;SDS011;8235;52.198;9.904;2023-03-14T05:05:56;0.93;;;0.40;;
16254;SDS011;8235;52.198;9.904;2023-03-14T05:08:23;0.73;;;0.60;;
16254;SDS011;8235;52.198;9.904;2023-03-14T05:10:53;2.23;;;0.60;;
16254;SDS011;8235;52.198;9.904;2023-03-14T05:13:19;5.23;;;0.63;;
16254;SDS011;8235;52.198;9.904;2023-03-14T05:15:46;1.33;;;0.67;;
16254;SDS011;8235;52.198;9.904;2023-03-14T05:18:12;2.57;;;0.77;;
16254;SDS011;8235;52.198;9.904;2023-03-14T05:20:40;2.63;;;0.87;;
16254;SDS011;8235;52.198;9.904;2023-03-14T05:23:08;2.37;;;0.50;;
16254;SDS011;8235;52.198;9.904;2023-03-14T05:25:34;2.17;;;0.60;;
16254;SDS011;8235;52.198;9.904;2023-03-14T05:28:01;3.20;;;0.80;;
16254;SDS011;8235;52.198;9.904;2023-03-14T05:30:27;2.90;;;1.33;;
16254;SDS011;8235;52.198;9.904;2023-03-14T05:32:55;3.93;;;0.80;;
16254;SDS011;8235;52.198;9.904;2023-03-14T05:35:22;3.87;;;0.60;;
16254;SDS011;8235;52.198;9.904;2023-03-14T05:37:50;1.33;;;0.47;;
16254;SDS011;8235;52.198;9.904;2023-03-14T05:40:16;2.40;;;0.60;;
16254;SDS011;8235;52.198;9.904;2023-03-14T05:42:43;1.37;;;0.50;;
16254;SDS011;8235;52.198;9.904;2023-03-14T05:45:10;3.03;;;0.60;;
16254;SDS011;8235;52.198;9.904;2023-03-14T05:47:37;3.03;;;0.90;;
16254;SDS011;8235;52.198;9.904;2023-03-14T05:50:03;4.00;;;0.73;;
16254;SDS011;8235;52.198;9.904;2023-03-14T05:52:30;1.07;;;0.40;;
16254;SDS011;8235;52.198;9.904;2023-03-14T05:54:58;2.73;;;0.43;;
16254;SDS011;8235;52.198;9.904;2023-03-14T05:57:25;1.33;;;0.40;;
16254;SDS011;8235;52.198;9.904;2023-03-14T05:59:51;1.60;;;0.60;;
16254;SDS011;8235;52.198;9.904;2023-03-14T06:02:18;2.73;;;0.93;;
16254;SDS011;8235;52.198;9.904;2023-03-14T06:04:44;2.00;;;0.80;;
16254;SDS011;8235;52.198;9.904;2023-03-14T06:07:11;1.80;;;0.40;;
16254;SDS011;8235;52.198;9.904;2023-03-14T06:09:37;1.07;;;0.40;;
16254;SDS011;8235;52.198;9.904;2023-03-14T06:12:06;3.60;;;1.30;;
16254;SDS011;8235;52.198;9.904;2023-03-14T06:14:32;1.77;;;0.70;;
16254;SDS011;8235;52.198;9.904;2023-03-14T06:16:59;1.17;;;0.40;;
16254;SDS011;8235;52.198;9.904;2023-03-14T06:19:25;2.70;;;0.77;;
16254;SDS011;8235;52.198;9.904;2023-03-14T06:21:52;2.10;;;0.60;;
16254;SDS011;8235;52.198;9.904;2023-03-14T06:24:19;2.03;;;0.57;;
16254;SDS011;8235;52.198;9.904;2023-03-14T06:26:45;1.97;;;0.50;;
16254;SDS011;8235;52.198;9.904;2023-03-14T06:29:13;2.80;;;0.83;;
16254;SDS011;8235;52.198;9.904;2023-03-14T06:31:39;2.57;;;0.60;;
16254;SDS011;8235;52.198;9.904;2023-03-14T06:34:06;4.10;;;0.60;;
16254;SDS011;8235;52.198;9.904;2023-03-14T06:36:32;1.47;;;0.47;;
16254;SDS011;8235;52.198;9.904;2023-03-14T06:38:59;1.77;;;0.50;;
16254;SDS011;8235;52.198;9.904;2023-03-14T06:41:25;2.73;;;0.40;;
16254;SDS011;8235;52.198;9.904;2023-03-14T06:43:52;3.50;;;0.87;;
16254;SDS011;8235;52.198;9.904;2023-03-14T06:46:20;2.50;;;0.70;;
16254;SDS011;8235;52.198;9.904;2023-03-14T06:48:49;3.43;;;0.50;;
16254;SDS011;8235;52.198;9.904;2023-03-14T06:51:15;1.70;;;0.50;;
16254;SDS011;8235;52.198;9.904;2023-03-14T06:53:42;1.30;;;0.40;;
16254;SDS011;8235;52.198;9.904;2023-03-14T06:56:11;4.17;;;0.53;;
16254;SDS011;8235;52.198;9.904;2023-03-14T06:58:38;2.43;;;0.30;;
16254;SDS011;8235;52.198;9.904;2023-03-14T07:01:05;1.40;;;0.40;;
16254;SDS011;8235;52.198;9.904;2023-03-14T07:03:33;0.87;;;0.40;;
16254;SDS011;8235;52.198;9.904;2023-03-14T07:05:59;2.47;;;0.30;;
16254;SDS011;8235;52.198;9.904;2023-03-14T07:08:26;0.80;;;0.40;;
16254;SDS011;8235;52.198;9.904;2023-03-14T07:10:52;1.67;;;0.40;;
16254;SDS011;8235;52.198;9.904;2023-03-14T07:13:21;0.87;;;0.60;;
16254;SDS011;8235;52.198;9.904;2023-03-14T07:15:48;4.33;;;0.90;;
16254;SDS011;8235;52.198;9.904;2023-03-14T07:18:14;2.67;;;0.63;;
16254;SDS011;8235;52.198;9.904;2023-03-14T07:20:42;1.67;;;0.50;;
16254;SDS011;8235;52.198;9.904;2023-03-14T07:23:11;3.00;;;0.70;;
16254;SDS011;8235;52.198;9.904;2023-03-14T07:25:37;1.57;;;0.70;;
16254;SDS011;8235;52.198;9.904;2023-03-14T07:28:04;2.57;;;0.70;;
16254;SDS011;8235;52.198;9.904;2023-03-14T07:30:30;1.93;;;0.70;;
16254;SDS011;8235;52.198;9.904;2023-03-14T07:32:57;2.63;;;0.90;;
16254;SDS011;8235;52.198;9.904;2023-03-14T07:35:23;1.87;;;0.70;;
16254;SDS011;8235;52.198;9.904;2023-03-14T07:37:51;2.90;;;0.60;;
16254;SDS011;8235;52.198;9.904;2023-03-14T07:40:17;3.53;;;1.37;;
16254;SDS011;8235;52.198;9.904;2023-03-14T07:42:44;2.97;;;0.90;;
16254;SDS011;8235;52.198;9.904;2023-03-14T07:45:11;3.00;;;0.60;;
16254;SDS011;8235;52.198;9.904;2023-03-14T07:47:38;5.00;;;1.43;;
16254;SDS011;8235;52.198;9.904;2023-03-14T07:50:05;2.83;;;0.90;;
16254;SDS011;8235;52.198;9.904;2023-03-14T07:52:32;2.87;;;1.00;;
16254;SDS011;8235;52.198;9.904;2023-03-14T07:55:00;2.07;;;0.97;;
16254;SDS011;8235;52.198;9.904;2023-03-14T07:57:26;3.47;;;1.50;;
16254;SDS011;8235;52.198;9.904;2023-03-14T07:59:53;4.57;;;1.23;;
16254;SDS011;8235;52.198;9.904;2023-03-14T08:02:19;2.73;;;0.93;;
16254;SDS011;8235;52.198;9.904;2023-03-14T08:04:49;2.93;;;1.03;;
16254;SDS011;8235;52.198;9.904;2023-03-14T08:07:16;4.30;;;1.17;;
16254;SDS011;8235;52.198;9.904;2023-03-14T08:09:42;2.37;;;0.80;;
16254;SDS011;8235;52.198;9.904;2023-03-14T08:12:11;3.60;;;1.50;;
16254;SDS011;8235;52.198;9.904;2023-03-14T08:14:37;5.07;;;0.97;;
16254;SDS011;8235;52.198;9.904;2023-03-14T08:17:04;3.27;;;1.00;;
16254;SDS011;8235;52.198;9.904;2023-03-14T08:19:33;1.57;;;0.63;;
16254;SDS011;8235;52.198;9.904;2023-03-14T08:21:59;1.43;;;0.40;;
16254;SDS011;8235;52.198;9.904;2023-03-14T08:24:26;2.43;;;0.70;;
16254;SDS011;8235;52.198;9.904;2023-03-14T08:26:53;4.57;;;0.60;;
16254;SDS011;8235;52.198;9.904;2023-03-14T08:29:20;2.10;;;0.80;;
16254;SDS011;8235;52.198;9.904;2023-03-14T08:31:47;4.67;;;0.73;;
16254;SDS011;8235;52.198;9.904;2023-03-14T08:34:14;2.57;;;0.80;;
16254;SDS011;8235;52.198;9.904;2023-03-14T08:36:40;1.97;;;0.70;;
16254;SDS011;8235;52.198;9.904;2023-03-14T08:39:07;1.57;;;0.70;;
16254;SDS011;8235;52.198;9.904;2023-03-14T08:41:33;1.40;;;0.80;;
16254;SDS011;8235;52.198;9.904;2023-03-14T08:44:05;2.50;;;0.90;;
16254;SDS011;8235;52.198;9.904;2023-03-14T08:46:32;1.50;;;0.50;;
16254;SDS011;8235;52.198;9.904;2023-03-14T08:48:59;2.10;;;0.70;;
16254;SDS011;8235;52.198;9.904;2023-03-14T08:51:26;1.27;;;0.60;;
16254;SDS011;8235;52.198;9.904;2023-03-14T08:53:52;3.77;;;0.73;;
16254;SDS011;8235;52.198;9.904;2023-03-14T08:56:18;2.80;;;1.20;;
16254;SDS011;8235;52.198;9.904;2023-03-14T08:58:45;1.30;;;0.60;;
16254;SDS011;8235;52.198;9.904;2023-03-14T09:01:11;2.93;;;0.57;;
16254;SDS011;8235;52.198;9.904;2023-03-14T09:03:39;2.07;;;0.90;;
16254;SDS011;8235;52.198;9.904;2023-03-14T09:06:06;3.77;;;0.70;;
16254;SDS011;8235;52.198;9.904;2023-03-14T09:08:35;2.70;;;0.67;;
16254;SDS011;8235;52.198;9.904;2023-03-14T09:11:02;1.90;;;0.53;;
16254;SDS011;8235;52.198;9.904;2023-03-14T09:13:28;2.33;;;0.70;;
16254;SDS011;8235;52.198;9.904;2023-03-14T09:15:56;2.63;;;0.80;;
16254;SDS011;8235;52.198;9.904;2023-03-14T09:18:23;3.63;;;0.90;;
16254;SDS011;8235;52.198;9.904;2023-03-14T09:20:50;1.70;;;0.53;;
16254;SDS011;8235;52.198;9.904;2023-03-14T09:23:17;0.97;;;0.50;;
16254;SDS011;8235;52.198;9.904;2023-03-14T09:25:43;0.73;;;0.50;;
16254;SDS011;8235;52.198;9.904;2023-03-14T09:28:10;1.70;;;0.40;;
16254;SDS011;8235;52.198;9.904;2023-03-14T09:30:37;1.23;;;0.50;;
16254;SDS011;8235;52.198;9.904;2023-03-14T09:33:03;0.90;;;0.40;;
16254;SDS011;8235;52.198;9.904;2023-03-14T09:35:30;0.77;;;0.40;;
16254;SDS011;8235;52.198;9.904;2023-03-14T09:37:57;2.00;;;0.40;;
16254;SDS011;8235;52.198;9.904;2023-03-14T09:40:24;0.93;;;0.17;;
16254;SDS011;8235;52.198;9.904;2023-03-14T09:42:57;0.60;;;0.20;;
16254;SDS011;8235;52.198;9.904;2023-03-14T09:45:25;1.43;;;0.47;;
16254;SDS011;8235;52.198;9.904;2023-03-14T09:47:52;1.70;;;0.40;;
16254;SDS011;8235;52.198;9.904;2023-03-14T09:50:21;1.30;;;0.30;;
16254;SDS011;8235;52.198;9.904;2023-03-14T09:52:49;1.07;;;0.30;;
16254;SDS011;8235;52.198;9.904;2023-03-14T09:55:23;0.93;;;0.30;;
16254;SDS011;8235;52.198;9.904;2023-03-14T09:57:49;0.30;;;0.20;;
16254;SDS011;8235;52.198;9.904;2023-03-14T10:00:21;0.60;;;0.20;;
16254;SDS011;8235;52.198;9.904;2023-03-14T10:02:51;1.00;;;0.40;;
16254;SDS011;8235;52.198;9.904;2023-03-14T10:05:20;1.70;;;0.40;;
16254;SDS011;8235;52.198;9.904;2023-03-14T10:07:48;1.40;;;0.30;;
16254;SDS011;8235;52.198;9.904;2023-03-14T10:10:16;1.00;;;0.30;;
16254;SDS011;8235;52.198;9.904;2023-03-14T10:12:47;0.80;;;0.30;;
16254;SDS011;8235;52.198;9.904;2023-03-14T10:15:22;0.30;;;0.20;;
16254;SDS011;8235;52.198;9.904;2023-03-14T10:17:51;1.60;;;0.40;;
16254;SDS011;8235;52.198;9.904;2023-03-14T10:20:31;0.97;;;0.30;;
16254;SDS011;8235;52.198;9.904;2023-03-14T10:23:00;0.40;;;0.30;;
16254;SDS011;8235;52.198;9.904;2023-03-14T10:25:28;1.30;;;0.23;;
16254;SDS011;8235;52.198;9.904;2023-03-14T10:27:58;2.00;;;0.30;;
16254;SDS011;8235;52.198;9.904;2023-03-14T10:30:37;1.37;;;0.20;;
16254;SDS011;8235;52.198;9.904;2023-03-14T10:33:09;0.50;;;0.20;;
16254;SDS011;8235;52.198;9.904;2023-03-14T10:35:39;1.07;;;0.30;;
16254;SDS011;8235;52.198;9.904;2023-03-14T10:38:10;0.73;;;0.20;;
16254;SDS011;8235;52.198;9.904;2023-03-14T10:40:40;1.13;;;0.30;;
16254;SDS011;8235;52.198;9.904;2023-03-14T10:43:12;0.60;;;0.20;;
16254;SDS011;8235;52.198;9.904;2023-03-14T10:45:41;0.40;;;0.40;;
16254;SDS011;8235;52.198;9.904;2023-03-14T10:50:56;0.63;;;0.40;;
16254;SDS011;8235;52.198;9.904;2023-03-14T10:53:28;0.87;;;0.30;;
16254;SDS011;8235;52.198;9.904;2023-03-14T10:56:01;0.97;;;0.63;;
16254;SDS011;8235;52.198;9.904;2023-03-14T10:58:33;1.03;;;0.13;;
16254;SDS011;8235;52.198;9.904;2023-03-14T11:01:07;0.20;;;0.20;;
16254;SDS011;8235;52.198;9.904;2023-03-14T11:03:43;0.50;;;0.27;;
16254;SDS011;8235;52.198;9.904;2023-03-14T11:06:19;0.13;;;0.13;;
16254;SDS011;8235;52.198;9.904;2023-03-14T11:08:55;0.30;;;0.20;;
16254;SDS011;8235;52.198;9.904;2023-03-14T11:11:30;0.20;;;0.20;;
16254;SDS011;8235;52.198;9.904;2023-03-14T11:14:02;0.40;;;0.30;;
16254;SDS011;8235;52.198;9.904;2023-03-14T11:16:41;0.30;;;0.20;;
16254;SDS011;8235;52.198;9.904;2023-03-14T11:19:19;0.20;;;0.20;;
16254;SDS011;8235;52.198;9.904;2023-03-14T11:22:00;0.30;;;0.30;;
16254;SDS011;8235;52.198;9.904;2023-03-14T11:27:27;0.30;;;0.20;;
16254;SDS011;8235;52.198;9.904;2023-03-14T11:30:03;0.43;;;0.20;;
16254;SDS011;8235;52.198;9.904;2023-03-14T11:32:41;0.20;;;0.20;;
16254;SDS011;8235;52.198;9.904;2023-03-14T11:35:15;0.60;;;0.30;;
16254;SDS011;8235;52.198;9.904;2023-03-14T11:37:50;0.53;;;0.30;;
16254;SDS011;8235;52.198;9.904;2023-03-14T11:40:21;0.27;;;0.20;;
16254;SDS011;8235;52.198;9.904;2023-03-14T11:42:52;1.67;;;0.67;;
16254;SDS011;8235;52.198;9.904;2023-03-14T11:45:27;0.83;;;0.50;;
16254;SDS011;8235;52.198;9.904;2023-03-14T11:48:03;5.77;;;1.33;;
16254;SDS011;8235;52.198;9.904;2023-03-14T11:50:41;6.03;;;0.80;;
16254;SDS011;8235;52.198;9.904;2023-03-14T11:53:09;2.30;;;0.50;;
16254;SDS011;8235;52.198;9.904;2023-03-14T11:55:42;0.20;;;0.10;;
16254;SDS011;8235;52.198;9.904;2023-03-14T11:58:12;0.17;;;0.10;;
16254;SDS011;8235;52.198;9.904;2023-03-14T12:00:43;0.80;;;0.20;;
16254;SDS011;8235;52.198;9.904;2023-03-14T12:03:13;0.83;;;0.20;;
16254;SDS011;8235;52.198;9.904;2023-03-14T12:05:46;0.30;;;0.20;;
16254;SDS011;8235;52.198;9.904;2023-03-14T12:08:29;0.80;;;0.30;;
16254;SDS011;8235;52.198;9.904;2023-03-14T12:11:14;0.67;;;0.43;;
16254;SDS011;8235;52.198;9.904;2023-03-14T12:13:46;1.17;;;0.40;;
16254;SDS011;8235;52.198;9.904;2023-03-14T12:21:58;0.60;;;0.60;;
16254;SDS011;8235;52.198;9.904;2023-03-14T12:24:32;1.17;;;0.80;;
16254;SDS011;8235;52.198;9.904;2023-03-14T12:27:02;1.93;;;0.70;;
16254;SDS011;8235;52.198;9.904;2023-03-14T12:29:30;1.23;;;0.50;;
16254;SDS011;8235;52.198;9.904;2023-03-14T12:32:09;0.97;;;0.20;;
16254;SDS011;8235;52.198;9.904;2023-03-14T12:34:48;0.43;;;0.43;;
16254;SDS011;8235;52.198;9.904;2023-03-14T12:37:17;0.10;;;0.10;;
16254;SDS011;8235;52.198;9.904;2023-03-14T12:42:45;0.10;;;0.10;;
16254;SDS011;8235;52.198;9.904;2023-03-14T12:45:24;0.40;;;0.20;;
16254;SDS011;8235;52.198;9.904;2023-03-14T12:50:45;0.13;;;0.13;;
16254;SDS011;8235;52.198;9.904;2023-03-14T12:53:41;0.40;;;0.17;;
16254;SDS011;8235;52.198;9.904;2023-03-14T12:56:23;0.87;;;0.17;;
16254;SDS011;8235;52.198;9.904;2023-03-14T13:01:56;1.53;;;0.27;;
16254;SDS011;8235;52.198;9.904;2023-03-14T13:04:31;0.40;;;0.10;;
16254;SDS011;8235;52.198;9.904;2023-03-14T13:07:11;0.97;;;0.30;;
16254;SDS011;8235;52.198;9.904;2023-03-14T13:09:52;0.10;;;0.10;;
16254;SDS011;8235;52.198;9.904;2023-03-14T13:12:28;1.27;;;0.20;;
16254;SDS011;8235;52.198;9.904;2023-03-14T13:15:00;0.77;;;0.23;;
16254;SDS011;8235;52.198;9.904;2023-03-14T13:17:33;0.50;;;0.20;;
16254;SDS011;8235;52.198;9.904;2023-03-14T13:20:05;0.40;;;0.20;;
16254;SDS011;8235;52.198;9.904;2023-03-14T13:22:45;1.90;;;0.30;;
16254;SDS011;8235;52.198;9.904;2023-03-14T13:25:13;1.13;;;0.30;;
16254;SDS011;8235;52.198;9.904;2023-03-14T13:27:41;2.00;;;0.50;;
16254;SDS011;8235;52.198;9.904;2023-03-14T13:30:14;2.80;;;0.90;;
16254;SDS011;8235;52.198;9.904;2023-03-14T13:32:43;1.07;;;0.50;;
16254;SDS011;8235;52.198;9.904;2023-03-14T13:35:18;2.83;;;0.50;;
16254;SDS011;8235;52.198;9.904;2023-03-14T13:37:47;2.97;;;0.70;;
16254;SDS011;8235;52.198;9.904;2023-03-14T13:40:18;4.63;;;0.97;;
16254;SDS011;8235;52.198;9.904;2023-03-14T13:42:46;3.50;;;0.73;;
16254;SDS011;8235;52.198;9.904;2023-03-14T13:45:14;4.03;;;0.90;;
16254;SDS011;8235;52.198;9.904;2023-03-14T13:47:40;3.37;;;0.90;;
16254;SDS011;8235;52.198;9.904;2023-03-14T13:50:12;3.00;;;1.40;;
16254;SDS011;8235;52.198;9.904;2023-03-14T13:52:42;1.90;;;0.80;;
16254;SDS011;8235;52.198;9.904;2023-03-14T13:55:13;2.93;;;0.73;;
16254;SDS011;8235;52.198;9.904;2023-03-14T13:57:45;3.67;;;2.07;;
16254;SDS011;8235;52.198;9.904;2023-03-14T14:00:17;5.57;;;1.30;;
16254;SDS011;8235;52.198;9.904;2023-03-14T14:02:45;5.70;;;1.03;;
16254;SDS011;8235;52.198;9.904;2023-03-14T14:05:13;6.17;;;1.10;;
16254;SDS011;8235;52.198;9.904;2023-03-14T14:07:40;4.40;;;1.30;;
16254;SDS011;8235;52.198;9.904;2023-03-14T14:10:10;6.90;;;1.40;;
16254;SDS011;8235;52.198;9.904;2023-03-14T14:12:39;5.03;;;0.70;;
16254;SDS011;8235;52.198;9.904;2023-03-14T14:15:15;3.97;;;1.03;;
16254;SDS011;8235;52.198;9.904;2023-03-14T14:17:45;1.03;;;0.53;;
16254;SDS011;8235;52.198;9.904;2023-03-14T14:20:18;3.63;;;0.80;;
16254;SDS011;8235;52.198;9.904;2023-03-14T14:22:51;2.33;;;1.00;;
16254;SDS011;8235;52.198;9.904;2023-03-14T14:25:18;5.03;;;1.17;;
16254;SDS011;8235;52.198;9.904;2023-03-14T14:27:47;6.13;;;1.60;;
16254;SDS011;8235;52.198;9.904;2023-03-14T14:30:25;6.63;;;1.50;;
16254;SDS011;8235;52.198;9.904;2023-03-14T14:33:06;4.93;;;1.43;;
16254;SDS011;8235;52.198;9.904;2023-03-14T14:35:37;9.03;;;1.60;;
16254;SDS011;8235;52.198;9.904;2023-03-14T14:38:10;5.37;;;1.63;;
16254;SDS011;8235;52.198;9.904;2023-03-14T14:40:43;9.63;;;2.03;;
16254;SDS011;8235;52.198;9.904;2023-03-14T14:43:12;11.93;;;2.03;;
16254;SDS011;8235;52.198;9.904;2023-03-14T14:45:43;9.70;;;2.10;;
16254;SDS011;8235;52.198;9.904;2023-03-14T14:48:11;12.10;;;2.70;;
16254;SDS011;8235;52.198;9.904;2023-03-14T14:50:48;7.63;;;1.83;;
16254;SDS011;8235;52.198;9.904;2023-03-14T14:53:23;7.03;;;2.63;;
16254;SDS011;8235;52.198;9.904;2023-03-14T14:55:53;7.57;;;2.33;;
16254;SDS011;8235;52.198;9.904;2023-03-14T14:58:24;8.93;;;1.67;;
16254;SDS011;8235;52.198;9.904;2023-03-14T15:00:54;3.60;;;1.70;;
16254;SDS011;8235;52.198;9.904;2023-03-14T15:03:29;16.37;;;3.10;;
16254;SDS011;8235;52.198;9.904;2023-03-14T15:05:58;13.93;;;3.83;;
16254;SDS011;8235;52.198;9.904;2023-03-14T15:08:26;9.00;;;2.37;;
16254;SDS011;8235;52.198;9.904;2023-03-14T15:10:53;7.33;;;1.70;;
16254;SDS011;8235;52.198;9.904;2023-03-14T15:13:21;9.17;;;2.20;;
16254;SDS011;8235;52.198;9.904;2023-03-14T15:15:49;15.20;;;3.70;;
16254;SDS011;8235;52.198;9.904;2023-03-14T15:18:21;9.50;;;2.00;;
16254;SDS011;8235;52.198;9.904;2023-03-14T15:20:50;8.90;;;2.73;;
16254;SDS011;8235;52.198;9.904;2023-03-14T15:23:18;9.53;;;1.87;;
16254;SDS011;8235;52.198;9.904;2023-03-14T15:25:46;9.43;;;1.60;;
16254;SDS011;8235;52.198;9.904;2023-03-14T15:28:14;10.57;;;2.10;;
16254;SDS011;8235;52.198;9.904;2023-03-14T15:30:42;8.47;;;2.40;;